Station info - map view · info · telemetry · weather · raw · status · beacons · messages · bulletins · browse · moving · my account
Callsign, ship name or locator: Clear       
It is possible to search using wildcards (*?) after a prefix. Example: OH*
APRS station DF1WJ-9 - show graphs
Map loading...
Mic-E message: En route
Location: 52°31.95' N 10°09.13' E - locator JO52BM87GT - show map - static map
189.5 yards Southeast bearing 122° from Wathlingen, Lower Saxony, Germany [?]
1.8 miles Southwest bearing 227° from Eicklingen, Lower Saxony, Germany
67.5 miles Southeast bearing 123° from Bremen, Bremen, Germany
70.5 miles South bearing 175° from Hamburg, Hamburg, Germany
Last position: 2021-05-16 08:56:49 EDT (12h44m ago)
2021-05-16 14:56:49 CEST local time at Wathlingen, Germany [?]
Altitude: 95 ft
Course: 169°
Speed: 0 MPH
Device: Yaesu: FTM-400DR (rig)
Last path: DF1WJ-9>UR3Q95 via WIDE1-1,WIDE2-1,qAR,DL9OBM-10 (good)
Positions stored: 41918
Packet rate: 36 seconds between packets on average during 1772 seconds.
Stations near current position of DF1WJ-9 - show more
callsign distance last heard - EDT      callsign distance last heard - EDT
DL9OBM D227.0 yards 143°2021-05-16 15:55:25 DL9OBM-D227.0 yards 143°2021-05-16 15:55:35
DL9OBM C227.0 yards 143°2021-05-16 21:23:02 DL9OBM-C227.0 yards 143°2021-05-16 21:23:12
DL9OBM-N227.0 yards 143°2021-05-16 19:56:10 DL9OBM B227.0 yards 143°2021-05-16 21:29:07
DL9OBM-B227.0 yards 143°2021-05-16 21:29:17 DL9OBM-9234.7 yards 141°2021-05-14 15:15:57
DL9OBM-7237.2 yards 149°2021-05-15 06:42:28 DL9OBM-14243.9 yards 146°2021-05-16 09:25:04
DL9OBM-6251.1 yards 144°2021-05-16 09:20:12 PS-DL9OBM251.1 yards 144°2021-05-16 20:02:55
DL9OBM-10254.0 yards 151°2021-05-16 21:31:58 DL9OBM-Y254.0 yards 151°2021-05-08 13:16:03
DL9OBM-8260.3 yards 149°2021-04-27 13:19:34 DO6MJ-1305.6 yards 62°2021-05-16 21:29:39
DF641D801.8 miles 142°2021-04-21 03:01:37 D170473712.0 miles 208°2021-04-21 02:22:16
S31207902.1 miles 94°2021-04-19 21:27:49 D170469402.4 miles 31°2021-04-21 04:03:09
Stations which heard DF1WJ-9 directly on radio –
callsign pkts first heard - EDT last heard longest (tx => rx) longest at - EDT
DB0KX-2 149 2021-05-14 09:05:23 2021-05-16 06:46:27 JO41AS > JO31EG 80.8 miles 245° 2021-05-16 06:46:27
DB0GPS 3 2021-05-16 06:56:25 2021-05-16 07:42:41 JO41DU > JO41PU 44.8 miles 88° 2021-05-16 06:57:09
DM2HB 10 2021-05-14 08:08:23 2021-05-16 07:11:58 JO42IC > JO41EQ 32.0 miles 208° 2021-05-14 08:08:23
DB0OVN-2 8 2021-05-14 10:33:39 2021-05-16 05:18:36 JO31NB > JO31ID 17.2 miles 291° 2021-05-16 05:18:36
DB0OTV-2 30 2021-05-14 10:40:11 2021-05-16 06:45:25 JO41AS > JO31HG 70.3 miles 240° 2021-05-16 06:45:25
DB0SDA 50 2021-05-14 09:00:22 2021-05-16 06:46:25 JO41AS > JO30AS 110.2 miles 232° 2021-05-16 06:46:25
DB0RHB 12 2021-05-14 10:57:21 2021-05-16 05:17:07 JO31GC > JO30LN 40.2 miles 157° 2021-05-14 10:57:21
DB0NY 12 2021-05-14 09:02:23 2021-05-16 06:32:19 JO41AS > JO31TB 51.5 miles 199° 2021-05-14 09:02:23
DH5JG 1 2021-05-14 10:20:27 2021-05-14 10:20:27 JO31NG > JO31KJ 15.4 miles 314° 2021-05-14 10:20:27
ON0LN-10 1 2021-05-14 11:04:03 2021-05-14 11:04:03 JO31FB > JO21SB 39.3 miles 271° 2021-05-14 11:04:03
DB0GSH 2 2021-05-14 06:16:59 2021-05-16 08:41:38 JO52CN > JO51EV 45.4 miles 167° 2021-05-14 06:16:59
DG1RUE 3 2021-05-14 09:00:18 2021-05-14 09:05:19 JO31XR > JO32VA 22.3 miles 336° 2021-05-14 09:05:19
ON0LB-10 1 2021-05-14 11:14:46 2021-05-14 11:14:46 JO30EX > JO20SR 40.9 miles 247° 2021-05-14 11:14:46
DB0DRI 4 2021-05-14 07:13:10 2021-05-16 07:41:46 JO42QH > JO41MS 40.3 miles 199° 2021-05-14 07:13:10
DL8KZ 11 2021-05-14 10:11:20 2021-05-16 05:11:41 JO31OH > JO30PQ 43.2 miles 178° 2021-05-14 10:11:20
DB0HAT 38 2021-05-14 08:57:21 2021-05-16 07:13:01 JO41HX > JO31VQ 40.3 miles 241° 2021-05-16 07:13:01
DB0DAM 12 2021-05-14 07:14:18 2021-05-16 07:52:48 JO41AS > JO42CN 53.8 miles 7° 2021-05-14 09:00:46
DB0HML 1 2021-05-16 07:40:39 2021-05-16 07:40:39 JO42LF > JO42QC 16.9 miles 113° 2021-05-16 07:40:39
DL9OBM-10 45 2021-05-06 11:32:05 2021-05-16 08:56:49 JO42WK > JO52BM 12.4 miles 58° 2021-05-14 06:46:45
DB0ROD 89 2021-05-14 06:51:15 2021-05-16 08:52:43 JO52BN > JO42QH 35.1 miles 241° 2021-05-16 08:52:43
DB0FBB 5 2021-05-14 09:23:20 2021-05-16 06:12:03 JO31UO > JO31RM 10.0 miles 239° 2021-05-14 09:23:20
DL6PI 24 2021-05-14 09:15:49 2021-05-16 06:14:02 JO31WP > JO31QK 26.4 miles 237° 2021-05-14 09:15:49
DB0DAM-10 1 2021-05-14 08:03:27 2021-05-14 08:03:27 JO42JD > JO42CN 37.5 miles 320° 2021-05-14 08:03:27
DB0EIR-10 5 2021-05-14 09:54:47 2021-05-16 05:50:03 JO31QI > JO31PH 3.1 miles 256° 2021-05-14 09:54:47
DB0WET-10 24 2021-05-14 09:34:18 2021-05-16 06:07:02 JO31TL > JO31QI 14.0 miles 232° 2021-05-14 09:34:18
DF8JE-10 11 2021-05-14 10:28:37 2021-05-14 10:56:17 JO31ME > JO31ID 14.3 miles 259° 2021-05-14 10:28:37
DJ8KL-10 6 2021-05-14 06:51:09 2021-05-16 08:23:47 JO42TK > JO42UL 7.0 miles 67° 2021-05-14 07:01:39
DL2YCP-10 6 2021-05-14 09:59:00 2021-05-16 06:22:44 JO31PH > JO31SR 30.1 miles 19° 2021-05-14 09:59:00
DB1CD-10 9 2021-05-14 11:09:15 2021-05-16 04:30:44 JO31FA > JO30BT 20.6 miles 229° 2021-05-14 11:09:15
DG4DAA-13 37 2021-05-14 09:01:49 2021-05-16 06:44:23 JO31TM > JO31XO 13.6 miles 66° 2021-05-16 06:11:32
DB0TVH-10 22 2021-05-14 06:33:16 2021-05-16 08:34:16 JO42QG > JO42UJ 18.5 miles 67° 2021-05-14 07:17:10
DO4DY-10 2 2021-05-16 05:31:34 2021-05-16 05:43:54 JO31OF > JO31OM 21.0 miles 355° 2021-05-16 05:31:34
DB0BI-10 100 2021-05-14 07:38:32 2021-05-16 07:41:44 JO31TL > JO42FA 51.6 miles 44° 2021-05-16 06:08:06
DO5MMH 1 2021-05-14 09:42:48 2021-05-14 09:42:48 JO31SJ > JO31NJ 17.4 miles 269° 2021-05-14 09:42:48
DO4BZ-10 3 2021-05-16 08:16:17 2021-05-16 08:21:18 JO42SK > JO42TK 3.4 miles 66° 2021-05-16 08:16:17
DL3DP-1 5 2021-05-14 09:57:47 2021-05-16 05:58:47 JO31RJ > JO31PI 9.4 miles 250° 2021-05-16 05:58:47
DL3DP-2 2 2021-05-14 10:02:00 2021-05-16 05:47:33 JO31PH > JO31OI 3.9 miles 345° 2021-05-14 10:02:00
DK4DAX-1 4 2021-05-16 04:57:27 2021-05-16 05:10:11 JO31MA > JO30LW 5.1 miles 198° 2021-05-16 05:10:11
DL2OAM-10 8 2021-05-14 06:37:52 2021-05-16 08:51:45 JO42XL > JO52AP 12.1 miles 20° 2021-05-16 08:37:01
DH9AG-7 13 2021-05-14 07:52:29 2021-05-16 07:40:40 JO41HX > JO42LB 15.4 miles 67° 2021-05-16 07:14:51
DG1YHR-10 28 2021-05-16 06:46:23 2021-05-16 07:27:44 JO41AS > JO42HB 31.1 miles 54° 2021-05-16 06:46:23
DK8HC-2 3 2021-05-14 07:02:10 2021-05-14 07:11:10 JO42QI > JO42TH 10.2 miles 100° 2021-05-14 07:11:10
DK0RE-2 46 2021-05-14 08:18:48 2021-05-16 07:41:40 JO42MF > JO41CT 45.1 miles 231° 2021-05-16 07:41:40
DB0DUS-10 5 2021-05-14 10:34:39 2021-05-14 10:59:21 JO31GC > JO31JG 16.0 miles 38° 2021-05-14 10:59:21
DM0DOS-10 3 2021-05-14 07:47:00 2021-05-14 07:53:59 JO42MF > JO42AE 43.6 miles 266° 2021-05-14 07:47:00
DG3ACM-10 41 2021-05-14 10:16:10 2021-05-16 05:25:41 JO30DU > JO31ND 39.9 miles 56° 2021-05-14 11:41:21
DM0SZ-1 33 2021-05-14 06:03:26 2021-05-16 08:52:06 JO42PF > JO52DC 43.0 miles 101° 2021-05-16 07:53:47
DO0KB 39 2021-05-14 10:29:37 2021-05-16 05:21:38 JO31NC > JO30GU 30.0 miles 235° 2021-05-16 05:21:38
DM0RS-5 58 2021-05-14 09:34:50 2021-05-16 06:45:23 JO41AS > JO31OE 53.7 miles 220° 2021-05-16 06:45:23
DO5NE-10 2 2021-05-14 10:59:50 2021-05-14 11:00:20 JO31GC > JO31HE 7.5 miles 30° 2021-05-14 11:00:20
DL7PL 10 2021-05-14 09:30:50 2021-05-16 06:02:39 JO31PH > JO31TI 13.1 miles 78° 2021-05-14 09:57:20
DM0MAX 33 2021-05-14 08:09:23 2021-05-16 07:37:07 JO41CT > JO42IG 39.2 miles 34° 2021-05-16 06:52:24
DO9HI-2 11 2021-05-14 06:35:43 2021-05-16 08:39:36 JO52AL > JO42XJ 7.6 miles 186° 2021-05-16 08:39:36
DO2TMJ-10 36 2021-05-14 06:58:39 2021-05-16 08:18:46 JO42LF > JO42RJ 23.5 miles 54° 2021-05-16 07:40:07
DB0STH-10 6 2021-05-14 06:58:10 2021-05-16 08:07:07 JO42PG > JO42RK 14.0 miles 20° 2021-05-14 07:35:16
DB0HSK-10 23 2021-05-14 08:31:20 2021-05-16 07:25:21 JO42IC > JO41DJ 54.3 miles 201° 2021-05-16 07:25:21

Only position packets which were originated by the station are shown here. The range statistics show some extra long hops, because some digipeaters do not correctly add themselves to the digipeater path. Please check the raw packets.
About this site
This page shows real-time information collected from the Automatic Position Reporting System Internet network (APRS-IS). APRS is used by amateur (ham) radio operators to transmit real-time position information, weather data, telemetry and messages over the radio. A vehicle equipped with a GPS receiver, a VHF transmitter or HF transceiver and a small computer device called a tracker transmits it's location, speed and course in a small data packet, which is then received by a nearby iGate receiving site which forwards the packet on the Internet. Systems connected to the Internet can send information on the APRS-IS without a radio transmitter, or collect and display information transmitted anywhere in the world.
User guide · FAQ · Blog · Discussion group · Linking to aprs.fi · AIS sites · Service status · Database statistics · Advertising on aprs.fi · Technical details · API · Change log · Planned changes · Credits and thanks · Terms Of Service · iPhone/iPad APRS